sensor_id;sensor_type;location;lat;lon;timestamp;P1;durP1;ratioP1;P2;durP2;ratioP2
67092;SDS011;54011;50.772;7.730;2023-06-14T00:01:21;8.32;;;4.53;;
67092;SDS011;54011;50.772;7.730;2023-06-14T00:03:47;10.27;;;4.38;;
67092;SDS011;54011;50.772;7.730;2023-06-14T00:06:13;9.75;;;4.63;;
67092;SDS011;54011;50.772;7.730;2023-06-14T00:08:39;7.80;;;4.53;;
67092;SDS011;54011;50.772;7.730;2023-06-14T00:11:05;8.25;;;4.15;;
67092;SDS011;54011;50.772;7.730;2023-06-14T00:13:32;11.25;;;4.65;;
67092;SDS011;54011;50.772;7.730;2023-06-14T00:15:57;10.80;;;4.97;;
67092;SDS011;54011;50.772;7.730;2023-06-14T00:18:23;9.00;;;4.60;;
67092;SDS011;54011;50.772;7.730;2023-06-14T00:20:54;10.63;;;4.72;;
67092;SDS011;54011;50.772;7.730;2023-06-14T00:23:21;8.38;;;4.50;;
67092;SDS011;54011;50.772;7.730;2023-06-14T00:25:46;9.45;;;4.38;;
67092;SDS011;54011;50.772;7.730;2023-06-14T00:28:12;7.68;;;4.32;;
67092;SDS011;54011;50.772;7.730;2023-06-14T00:30:38;8.80;;;5.00;;
67092;SDS011;54011;50.772;7.730;2023-06-14T00:33:03;10.52;;;4.32;;
67092;SDS011;54011;50.772;7.730;2023-06-14T00:35:29;8.68;;;4.60;;
67092;SDS011;54011;50.772;7.730;2023-06-14T00:37:56;8.18;;;4.75;;
67092;SDS011;54011;50.772;7.730;2023-06-14T00:40:21;6.85;;;4.40;;
67092;SDS011;54011;50.772;7.730;2023-06-14T00:42:47;7.97;;;5.00;;
67092;SDS011;54011;50.772;7.730;2023-06-14T00:45:13;9.45;;;4.25;;
67092;SDS011;54011;50.772;7.730;2023-06-14T00:47:40;8.18;;;4.45;;
67092;SDS011;54011;50.772;7.730;2023-06-14T00:50:07;8.43;;;4.88;;
67092;SDS011;54011;50.772;7.730;2023-06-14T00:52:34;8.52;;;4.63;;
67092;SDS011;54011;50.772;7.730;2023-06-14T00:55:00;8.80;;;4.63;;
67092;SDS011;54011;50.772;7.730;2023-06-14T00:57:26;8.35;;;4.63;;
67092;SDS011;54011;50.772;7.730;2023-06-14T00:59:52;7.82;;;4.60;;
67092;SDS011;54011;50.772;7.730;2023-06-14T01:02:17;7.05;;;4.40;;
67092;SDS011;54011;50.772;7.730;2023-06-14T01:04:44;8.88;;;4.80;;
67092;SDS011;54011;50.772;7.730;2023-06-14T01:10:31;9.52;;;4.43;;
67092;SDS011;54011;50.772;7.730;2023-06-14T01:16:04;8.63;;;4.50;;
67092;SDS011;54011;50.772;7.730;2023-06-14T01:18:30;8.80;;;4.18;;
67092;SDS011;54011;50.772;7.730;2023-06-14T01:20:57;8.80;;;4.50;;
67092;SDS011;54011;50.772;7.730;2023-06-14T01:23:24;8.95;;;4.28;;
67092;SDS011;54011;50.772;7.730;2023-06-14T01:25:51;7.65;;;4.63;;
67092;SDS011;54011;50.772;7.730;2023-06-14T01:28:20;12.57;;;4.63;;
67092;SDS011;54011;50.772;7.730;2023-06-14T01:30:50;9.43;;;4.68;;
67092;SDS011;54011;50.772;7.730;2023-06-14T01:33:19;8.05;;;4.25;;
67092;SDS011;54011;50.772;7.730;2023-06-14T01:35:50;12.45;;;4.55;;
67092;SDS011;54011;50.772;7.730;2023-06-14T01:38:17;8.63;;;4.50;;
67092;SDS011;54011;50.772;7.730;2023-06-14T01:40:44;7.40;;;4.63;;
67092;SDS011;54011;50.772;7.730;2023-06-14T01:43:11;7.88;;;4.70;;
67092;SDS011;54011;50.772;7.730;2023-06-14T01:45:38;7.80;;;4.20;;
67092;SDS011;54011;50.772;7.730;2023-06-14T01:48:05;7.97;;;4.25;;
67092;SDS011;54011;50.772;7.730;2023-06-14T01:50:31;9.73;;;4.57;;
67092;SDS011;54011;50.772;7.730;2023-06-14T01:52:57;8.43;;;4.40;;
67092;SDS011;54011;50.772;7.730;2023-06-14T01:55:23;8.00;;;4.18;;
67092;SDS011;54011;50.772;7.730;2023-06-14T01:57:53;7.60;;;4.28;;
67092;SDS011;54011;50.772;7.730;2023-06-14T02:00:19;6.85;;;3.90;;
67092;SDS011;54011;50.772;7.730;2023-06-14T02:02:46;7.75;;;4.03;;
67092;SDS011;54011;50.772;7.730;2023-06-14T02:05:12;7.82;;;4.07;;
67092;SDS011;54011;50.772;7.730;2023-06-14T02:07:40;7.88;;;3.63;;
67092;SDS011;54011;50.772;7.730;2023-06-14T02:10:06;8.23;;;4.00;;
67092;SDS011;54011;50.772;7.730;2023-06-14T02:12:32;10.50;;;4.60;;
67092;SDS011;54011;50.772;7.730;2023-06-14T02:14:57;7.25;;;4.40;;
67092;SDS011;54011;50.772;7.730;2023-06-14T02:17:23;9.73;;;4.28;;
67092;SDS011;54011;50.772;7.730;2023-06-14T02:19:48;7.15;;;3.83;;
67092;SDS011;54011;50.772;7.730;2023-06-14T02:22:14;7.70;;;4.65;;
67092;SDS011;54011;50.772;7.730;2023-06-14T02:24:41;7.80;;;4.50;;
67092;SDS011;54011;50.772;7.730;2023-06-14T02:27:07;8.43;;;4.93;;
67092;SDS011;54011;50.772;7.730;2023-06-14T02:29:35;7.15;;;4.50;;
67092;SDS011;54011;50.772;7.730;2023-06-14T02:32:03;6.90;;;4.50;;
67092;SDS011;54011;50.772;7.730;2023-06-14T02:34:29;7.43;;;4.93;;
67092;SDS011;54011;50.772;7.730;2023-06-14T02:36:55;8.23;;;4.70;;
67092;SDS011;54011;50.772;7.730;2023-06-14T02:39:22;9.52;;;5.35;;
67092;SDS011;54011;50.772;7.730;2023-06-14T02:41:48;8.68;;;4.70;;
67092;SDS011;54011;50.772;7.730;2023-06-14T02:44:19;8.55;;;5.00;;
67092;SDS011;54011;50.772;7.730;2023-06-14T02:46:45;9.35;;;5.05;;
67092;SDS011;54011;50.772;7.730;2023-06-14T02:49:13;9.68;;;4.72;;
67092;SDS011;54011;50.772;7.730;2023-06-14T02:51:39;6.90;;;4.80;;
67092;SDS011;54011;50.772;7.730;2023-06-14T02:54:05;6.72;;;4.00;;
67092;SDS011;54011;50.772;7.730;2023-06-14T02:56:31;8.02;;;4.00;;
67092;SDS011;54011;50.772;7.730;2023-06-14T02:58:57;8.32;;;4.25;;
67092;SDS011;54011;50.772;7.730;2023-06-14T03:01:25;9.10;;;4.22;;
67092;SDS011;54011;50.772;7.730;2023-06-14T03:04:02;8.77;;;4.20;;
67092;SDS011;54011;50.772;7.730;2023-06-14T03:06:30;7.88;;;3.85;;
67092;SDS011;54011;50.772;7.730;2023-06-14T03:08:57;7.38;;;4.05;;
67092;SDS011;54011;50.772;7.730;2023-06-14T03:11:30;8.65;;;4.60;;
67092;SDS011;54011;50.772;7.730;2023-06-14T03:13:56;7.47;;;4.32;;
67092;SDS011;54011;50.772;7.730;2023-06-14T03:16:25;9.55;;;4.25;;
67092;SDS011;54011;50.772;7.730;2023-06-14T03:18:54;9.60;;;4.18;;
67092;SDS011;54011;50.772;7.730;2023-06-14T03:21:23;10.55;;;4.15;;
67092;SDS011;54011;50.772;7.730;2023-06-14T03:23:49;7.82;;;4.32;;
67092;SDS011;54011;50.772;7.730;2023-06-14T03:26:15;7.55;;;4.18;;
67092;SDS011;54011;50.772;7.730;2023-06-14T03:28:45;7.80;;;4.20;;
67092;SDS011;54011;50.772;7.730;2023-06-14T03:31:12;8.15;;;4.75;;
67092;SDS011;54011;50.772;7.730;2023-06-14T03:33:38;9.55;;;4.60;;
67092;SDS011;54011;50.772;7.730;2023-06-14T03:36:04;7.85;;;4.70;;
67092;SDS011;54011;50.772;7.730;2023-06-14T03:38:31;7.22;;;4.72;;
67092;SDS011;54011;50.772;7.730;2023-06-14T03:40:56;8.43;;;5.00;;
67092;SDS011;54011;50.772;7.730;2023-06-14T03:43:22;8.23;;;5.28;;
67092;SDS011;54011;50.772;7.730;2023-06-14T03:45:48;7.78;;;5.22;;
67092;SDS011;54011;50.772;7.730;2023-06-14T03:48:15;9.70;;;5.22;;
67092;SDS011;54011;50.772;7.730;2023-06-14T03:50:42;7.93;;;5.05;;
67092;SDS011;54011;50.772;7.730;2023-06-14T03:53:08;7.97;;;5.03;;
67092;SDS011;54011;50.772;7.730;2023-06-14T03:55:37;9.45;;;5.10;;
67092;SDS011;54011;50.772;7.730;2023-06-14T03:58:03;9.45;;;5.07;;
67092;SDS011;54011;50.772;7.730;2023-06-14T04:00:29;10.27;;;4.55;;
67092;SDS011;54011;50.772;7.730;2023-06-14T04:02:55;7.35;;;4.15;;
67092;SDS011;54011;50.772;7.730;2023-06-14T04:05:21;7.53;;;3.85;;
67092;SDS011;54011;50.772;7.730;2023-06-14T04:07:49;9.75;;;4.00;;
67092;SDS011;54011;50.772;7.730;2023-06-14T04:10:16;7.78;;;3.65;;
67092;SDS011;54011;50.772;7.730;2023-06-14T04:12:41;7.10;;;3.67;;
67092;SDS011;54011;50.772;7.730;2023-06-14T04:15:08;6.03;;;3.78;;
67092;SDS011;54011;50.772;7.730;2023-06-14T04:17:34;6.97;;;3.60;;
67092;SDS011;54011;50.772;7.730;2023-06-14T04:20:02;8.68;;;3.97;;
67092;SDS011;54011;50.772;7.730;2023-06-14T04:22:31;9.88;;;3.88;;
67092;SDS011;54011;50.772;7.730;2023-06-14T04:24:58;6.20;;;3.42;;
67092;SDS011;54011;50.772;7.730;2023-06-14T04:27:28;8.02;;;3.90;;
67092;SDS011;54011;50.772;7.730;2023-06-14T04:29:56;7.25;;;4.03;;
67092;SDS011;54011;50.772;7.730;2023-06-14T04:32:26;7.78;;;3.40;;
67092;SDS011;54011;50.772;7.730;2023-06-14T04:34:53;7.35;;;3.47;;
67092;SDS011;54011;50.772;7.730;2023-06-14T04:37:20;7.65;;;3.75;;
67092;SDS011;54011;50.772;7.730;2023-06-14T04:39:48;7.95;;;3.67;;
67092;SDS011;54011;50.772;7.730;2023-06-14T04:42:15;6.72;;;3.75;;
67092;SDS011;54011;50.772;7.730;2023-06-14T04:44:43;7.28;;;3.67;;
67092;SDS011;54011;50.772;7.730;2023-06-14T04:47:10;9.90;;;3.90;;
67092;SDS011;54011;50.772;7.730;2023-06-14T04:49:37;8.38;;;3.83;;
67092;SDS011;54011;50.772;7.730;2023-06-14T04:52:05;9.25;;;4.10;;
67092;SDS011;54011;50.772;7.730;2023-06-14T04:54:37;7.05;;;4.00;;
67092;SDS011;54011;50.772;7.730;2023-06-14T04:57:04;10.93;;;4.00;;
67092;SDS011;54011;50.772;7.730;2023-06-14T04:59:31;6.30;;;3.70;;
67092;SDS011;54011;50.772;7.730;2023-06-14T05:01:58;7.35;;;3.50;;
67092;SDS011;54011;50.772;7.730;2023-06-14T05:04:25;12.13;;;3.78;;
67092;SDS011;54011;50.772;7.730;2023-06-14T05:06:52;8.40;;;3.63;;
67092;SDS011;54011;50.772;7.730;2023-06-14T05:09:20;11.23;;;3.42;;
67092;SDS011;54011;50.772;7.730;2023-06-14T05:11:46;5.82;;;3.60;;
67092;SDS011;54011;50.772;7.730;2023-06-14T05:14:12;7.65;;;3.45;;
67092;SDS011;54011;50.772;7.730;2023-06-14T05:16:39;9.52;;;3.80;;
67092;SDS011;54011;50.772;7.730;2023-06-14T05:19:05;6.68;;;3.60;;
67092;SDS011;54011;50.772;7.730;2023-06-14T05:21:30;7.88;;;3.97;;
67092;SDS011;54011;50.772;7.730;2023-06-14T05:23:57;7.13;;;3.60;;
67092;SDS011;54011;50.772;7.730;2023-06-14T05:26:24;7.75;;;3.80;;
67092;SDS011;54011;50.772;7.730;2023-06-14T05:28:54;7.10;;;3.25;;
67092;SDS011;54011;50.772;7.730;2023-06-14T05:31:21;7.60;;;3.78;;
67092;SDS011;54011;50.772;7.730;2023-06-14T05:33:48;8.90;;;4.05;;
67092;SDS011;54011;50.772;7.730;2023-06-14T05:36:13;8.85;;;3.47;;
67092;SDS011;54011;50.772;7.730;2023-06-14T05:38:39;10.55;;;3.17;;
67092;SDS011;54011;50.772;7.730;2023-06-14T05:41:05;7.20;;;3.40;;
67092;SDS011;54011;50.772;7.730;2023-06-14T05:43:31;5.60;;;3.28;;
67092;SDS011;54011;50.772;7.730;2023-06-14T05:45:57;9.50;;;3.28;;
67092;SDS011;54011;50.772;7.730;2023-06-14T05:48:22;5.68;;;3.13;;
67092;SDS011;54011;50.772;7.730;2023-06-14T05:50:48;8.05;;;3.30;;
67092;SDS011;54011;50.772;7.730;2023-06-14T05:53:13;5.25;;;2.83;;
67092;SDS011;54011;50.772;7.730;2023-06-14T05:55:39;7.03;;;3.10;;
67092;SDS011;54011;50.772;7.730;2023-06-14T05:58:04;5.97;;;2.95;;
67092;SDS011;54011;50.772;7.730;2023-06-14T06:00:30;7.20;;;3.50;;
67092;SDS011;54011;50.772;7.730;2023-06-14T06:02:55;14.70;;;3.90;;
67092;SDS011;54011;50.772;7.730;2023-06-14T06:05:22;7.47;;;3.10;;
67092;SDS011;54011;50.772;7.730;2023-06-14T06:07:48;7.53;;;2.90;;
67092;SDS011;54011;50.772;7.730;2023-06-14T06:10:14;6.32;;;3.15;;
67092;SDS011;54011;50.772;7.730;2023-06-14T06:12:40;9.82;;;3.25;;
67092;SDS011;54011;50.772;7.730;2023-06-14T06:15:06;5.78;;;2.88;;
67092;SDS011;54011;50.772;7.730;2023-06-14T06:17:33;6.13;;;3.17;;
67092;SDS011;54011;50.772;7.730;2023-06-14T06:19:59;6.40;;;2.90;;
67092;SDS011;54011;50.772;7.730;2023-06-14T06:22:25;6.15;;;2.80;;
67092;SDS011;54011;50.772;7.730;2023-06-14T06:24:51;9.02;;;2.50;;
67092;SDS011;54011;50.772;7.730;2023-06-14T06:27:18;7.30;;;2.88;;
67092;SDS011;54011;50.772;7.730;2023-06-14T06:29:44;6.80;;;2.85;;
67092;SDS011;54011;50.772;7.730;2023-06-14T06:32:09;8.32;;;2.38;;
67092;SDS011;54011;50.772;7.730;2023-06-14T06:34:35;6.63;;;2.63;;
67092;SDS011;54011;50.772;7.730;2023-06-14T06:37:00;4.47;;;2.55;;
67092;SDS011;54011;50.772;7.730;2023-06-14T06:39:26;4.78;;;2.42;;
67092;SDS011;54011;50.772;7.730;2023-06-14T06:41:51;6.25;;;2.80;;
67092;SDS011;54011;50.772;7.730;2023-06-14T06:44:26;4.00;;;2.20;;
67092;SDS011;54011;50.772;7.730;2023-06-14T06:46:52;6.13;;;2.47;;
67092;SDS011;54011;50.772;7.730;2023-06-14T06:49:19;9.18;;;2.55;;
67092;SDS011;54011;50.772;7.730;2023-06-14T06:51:58;6.07;;;2.60;;
67092;SDS011;54011;50.772;7.730;2023-06-14T06:54:25;7.57;;;2.50;;
67092;SDS011;54011;50.772;7.730;2023-06-14T06:56:52;6.18;;;2.60;;
67092;SDS011;54011;50.772;7.730;2023-06-14T06:59:17;9.55;;;2.35;;
67092;SDS011;54011;50.772;7.730;2023-06-14T07:01:43;5.55;;;2.05;;
67092;SDS011;54011;50.772;7.730;2023-06-14T07:04:08;3.85;;;2.00;;
67092;SDS011;54011;50.772;7.730;2023-06-14T07:06:35;7.28;;;1.70;;
67092;SDS011;54011;50.772;7.730;2023-06-14T07:09:02;5.53;;;2.20;;
67092;SDS011;54011;50.772;7.730;2023-06-14T07:11:29;6.57;;;1.90;;
67092;SDS011;54011;50.772;7.730;2023-06-14T07:13:55;3.80;;;1.80;;
67092;SDS011;54011;50.772;7.730;2023-06-14T07:16:21;3.63;;;1.80;;
67092;SDS011;54011;50.772;7.730;2023-06-14T07:18:47;3.95;;;1.90;;
67092;SDS011;54011;50.772;7.730;2023-06-14T07:21:12;4.60;;;1.88;;
67092;SDS011;54011;50.772;7.730;2023-06-14T07:23:38;5.63;;;1.90;;
67092;SDS011;54011;50.772;7.730;2023-06-14T07:26:03;3.97;;;1.75;;
67092;SDS011;54011;50.772;7.730;2023-06-14T07:28:30;4.45;;;1.90;;
67092;SDS011;54011;50.772;7.730;2023-06-14T07:30:55;4.00;;;1.73;;
67092;SDS011;54011;50.772;7.730;2023-06-14T07:33:21;5.97;;;2.00;;
67092;SDS011;54011;50.772;7.730;2023-06-14T07:35:48;3.83;;;1.95;;
67092;SDS011;54011;50.772;7.730;2023-06-14T07:38:14;4.13;;;2.10;;
67092;SDS011;54011;50.772;7.730;2023-06-14T07:40:40;4.30;;;2.03;;
67092;SDS011;54011;50.772;7.730;2023-06-14T07:43:05;4.18;;;2.00;;
67092;SDS011;54011;50.772;7.730;2023-06-14T07:45:31;6.60;;;1.83;;
67092;SDS011;54011;50.772;7.730;2023-06-14T07:47:56;5.07;;;1.88;;
67092;SDS011;54011;50.772;7.730;2023-06-14T07:50:21;4.90;;;1.80;;
67092;SDS011;54011;50.772;7.730;2023-06-14T07:52:47;6.50;;;2.35;;
67092;SDS011;54011;50.772;7.730;2023-06-14T07:55:14;7.70;;;1.98;;
67092;SDS011;54011;50.772;7.730;2023-06-14T07:57:40;7.35;;;1.92;;
67092;SDS011;54011;50.772;7.730;2023-06-14T08:00:06;5.90;;;2.00;;
67092;SDS011;54011;50.772;7.730;2023-06-14T08:02:37;4.32;;;1.90;;
67092;SDS011;54011;50.772;7.730;2023-06-14T08:05:04;5.50;;;1.92;;
67092;SDS011;54011;50.772;7.730;2023-06-14T08:07:29;5.07;;;2.00;;
67092;SDS011;54011;50.772;7.730;2023-06-14T08:09:55;4.53;;;1.90;;
67092;SDS011;54011;50.772;7.730;2023-06-14T08:12:22;4.18;;;1.83;;
67092;SDS011;54011;50.772;7.730;2023-06-14T08:14:47;4.47;;;1.73;;
67092;SDS011;54011;50.772;7.730;2023-06-14T08:17:13;3.70;;;1.75;;
67092;SDS011;54011;50.772;7.730;2023-06-14T08:19:39;6.97;;;1.90;;
67092;SDS011;54011;50.772;7.730;2023-06-14T08:22:06;4.47;;;1.63;;
67092;SDS011;54011;50.772;7.730;2023-06-14T08:24:32;6.10;;;1.92;;
67092;SDS011;54011;50.772;7.730;2023-06-14T08:26:57;5.97;;;1.77;;
67092;SDS011;54011;50.772;7.730;2023-06-14T08:29:26;3.88;;;1.58;;
67092;SDS011;54011;50.772;7.730;2023-06-14T08:31:54;4.15;;;1.42;;
67092;SDS011;54011;50.772;7.730;2023-06-14T08:34:21;4.70;;;1.77;;
67092;SDS011;54011;50.772;7.730;2023-06-14T08:36:50;3.90;;;1.80;;
67092;SDS011;54011;50.772;7.730;2023-06-14T08:39:16;3.85;;;1.73;;
67092;SDS011;54011;50.772;7.730;2023-06-14T08:41:42;3.63;;;1.77;;
67092;SDS011;54011;50.772;7.730;2023-06-14T08:44:11;3.33;;;1.52;;
67092;SDS011;54011;50.772;7.730;2023-06-14T08:46:38;3.40;;;1.70;;
67092;SDS011;54011;50.772;7.730;2023-06-14T08:49:03;3.97;;;2.00;;
67092;SDS011;54011;50.772;7.730;2023-06-14T08:51:32;3.97;;;1.80;;
67092;SDS011;54011;50.772;7.730;2023-06-14T08:54:02;4.38;;;1.60;;
67092;SDS011;54011;50.772;7.730;2023-06-14T08:56:29;4.97;;;1.63;;
67092;SDS011;54011;50.772;7.730;2023-06-14T08:58:55;5.97;;;1.40;;
67092;SDS011;54011;50.772;7.730;2023-06-14T09:01:22;7.47;;;1.58;;
67092;SDS011;54011;50.772;7.730;2023-06-14T09:03:49;5.07;;;1.73;;
67092;SDS011;54011;50.772;7.730;2023-06-14T09:06:16;3.22;;;1.48;;
67092;SDS011;54011;50.772;7.730;2023-06-14T09:08:46;8.18;;;1.45;;
67092;SDS011;54011;50.772;7.730;2023-06-14T09:11:15;3.67;;;1.60;;
67092;SDS011;54011;50.772;7.730;2023-06-14T09:13:43;4.38;;;1.50;;
67092;SDS011;54011;50.772;7.730;2023-06-14T09:16:10;3.30;;;1.40;;
67092;SDS011;54011;50.772;7.730;2023-06-14T09:21:05;3.00;;;1.40;;
67092;SDS011;54011;50.772;7.730;2023-06-14T09:23:33;3.05;;;1.10;;
67092;SDS011;54011;50.772;7.730;2023-06-14T09:26:01;3.25;;;1.10;;
67092;SDS011;54011;50.772;7.730;2023-06-14T09:28:31;3.45;;;1.40;;
67092;SDS011;54011;50.772;7.730;2023-06-14T09:30:58;3.55;;;1.30;;
67092;SDS011;54011;50.772;7.730;2023-06-14T09:33:25;3.72;;;1.40;;
67092;SDS011;54011;50.772;7.730;2023-06-14T09:35:51;2.15;;;1.10;;
67092;SDS011;54011;50.772;7.730;2023-06-14T09:38:17;3.63;;;1.23;;
67092;SDS011;54011;50.772;7.730;2023-06-14T09:40:43;4.78;;;1.23;;
67092;SDS011;54011;50.772;7.730;2023-06-14T09:43:10;5.43;;;1.20;;
67092;SDS011;54011;50.772;7.730;2023-06-14T09:45:36;3.63;;;1.40;;
67092;SDS011;54011;50.772;7.730;2023-06-14T09:48:05;4.35;;;1.30;;
67092;SDS011;54011;50.772;7.730;2023-06-14T09:50:32;2.53;;;1.20;;
67092;SDS011;54011;50.772;7.730;2023-06-14T09:53:00;3.85;;;1.38;;
67092;SDS011;54011;50.772;7.730;2023-06-14T09:55:30;4.25;;;1.25;;
67092;SDS011;54011;50.772;7.730;2023-06-14T09:57:59;2.70;;;1.30;;
67092;SDS011;54011;50.772;7.730;2023-06-14T10:00:30;3.25;;;1.17;;
67092;SDS011;54011;50.772;7.730;2023-06-14T10:03:00;5.85;;;1.20;;
67092;SDS011;54011;50.772;7.730;2023-06-14T10:05:31;2.70;;;1.30;;
67092;SDS011;54011;50.772;7.730;2023-06-14T10:08:00;5.32;;;1.30;;
67092;SDS011;54011;50.772;7.730;2023-06-14T10:10:30;4.50;;;1.20;;
67092;SDS011;54011;50.772;7.730;2023-06-14T10:12:56;3.60;;;1.27;;
67092;SDS011;54011;50.772;7.730;2023-06-14T10:15:28;2.65;;;1.13;;
67092;SDS011;54011;50.772;7.730;2023-06-14T10:18:00;4.13;;;1.55;;
67092;SDS011;54011;50.772;7.730;2023-06-14T10:20:39;4.55;;;1.35;;
67092;SDS011;54011;50.772;7.730;2023-06-14T10:23:16;3.28;;;1.08;;
67092;SDS011;54011;50.772;7.730;2023-06-14T10:25:44;4.95;;;1.40;;
67092;SDS011;54011;50.772;7.730;2023-06-14T10:28:16;5.13;;;1.48;;
67092;SDS011;54011;50.772;7.730;2023-06-14T10:33:30;2.30;;;1.10;;
67092;SDS011;54011;50.772;7.730;2023-06-14T10:41:28;2.55;;;1.15;;
67092;SDS011;54011;50.772;7.730;2023-06-14T10:46:45;2.13;;;1.00;;
67092;SDS011;54011;50.772;7.730;2023-06-14T10:49:12;4.70;;;1.30;;
67092;SDS011;54011;50.772;7.730;2023-06-14T10:51:45;4.13;;;1.50;;
67092;SDS011;54011;50.772;7.730;2023-06-14T10:54:17;4.55;;;1.40;;
67092;SDS011;54011;50.772;7.730;2023-06-14T10:56:49;7.45;;;1.30;;
67092;SDS011;54011;50.772;7.730;2023-06-14T10:59:16;4.45;;;1.30;;
67092;SDS011;54011;50.772;7.730;2023-06-14T11:04:22;5.00;;;1.60;;
67092;SDS011;54011;50.772;7.730;2023-06-14T11:07:03;4.80;;;1.60;;
67092;SDS011;54011;50.772;7.730;2023-06-14T11:09:51;3.72;;;1.45;;
67092;SDS011;54011;50.772;7.730;2023-06-14T11:12:31;4.55;;;1.40;;
67092;SDS011;54011;50.772;7.730;2023-06-14T11:14:58;3.17;;;1.40;;
67092;SDS011;54011;50.772;7.730;2023-06-14T11:17:26;6.00;;;1.50;;
67092;SDS011;54011;50.772;7.730;2023-06-14T11:20:06;3.40;;;1.60;;
67092;SDS011;54011;50.772;7.730;2023-06-14T11:22:38;5.93;;;1.55;;
67092;SDS011;54011;50.772;7.730;2023-06-14T11:25:08;3.78;;;1.50;;
67092;SDS011;54011;50.772;7.730;2023-06-14T11:27:36;5.30;;;1.60;;
67092;SDS011;54011;50.772;7.730;2023-06-14T11:30:01;4.28;;;1.50;;
67092;SDS011;54011;50.772;7.730;2023-06-14T11:32:27;5.97;;;1.58;;
67092;SDS011;54011;50.772;7.730;2023-06-14T11:34:54;3.95;;;1.63;;
67092;SDS011;54011;50.772;7.730;2023-06-14T11:37:20;4.63;;;1.70;;
67092;SDS011;54011;50.772;7.730;2023-06-14T11:39:46;4.95;;;1.63;;
67092;SDS011;54011;50.772;7.730;2023-06-14T11:42:15;5.07;;;1.50;;
67092;SDS011;54011;50.772;7.730;2023-06-14T11:44:42;3.28;;;1.70;;
67092;SDS011;54011;50.772;7.730;2023-06-14T11:47:07;4.15;;;1.50;;
67092;SDS011;54011;50.772;7.730;2023-06-14T11:49:36;4.68;;;1.77;;
67092;SDS011;54011;50.772;7.730;2023-06-14T11:52:01;3.30;;;1.67;;
67092;SDS011;54011;50.772;7.730;2023-06-14T11:54:27;5.43;;;1.80;;
67092;SDS011;54011;50.772;7.730;2023-06-14T11:56:54;4.47;;;1.73;;
67092;SDS011;54011;50.772;7.730;2023-06-14T11:59:23;6.93;;;1.65;;
67092;SDS011;54011;50.772;7.730;2023-06-14T12:04:23;3.53;;;1.83;;
67092;SDS011;54011;50.772;7.730;2023-06-14T12:06:50;3.45;;;1.30;;
67092;SDS011;54011;50.772;7.730;2023-06-14T12:09:18;5.30;;;1.50;;
67092;SDS011;54011;50.772;7.730;2023-06-14T12:11:44;5.57;;;1.33;;
67092;SDS011;54011;50.772;7.730;2023-06-14T12:14:10;5.15;;;1.60;;
67092;SDS011;54011;50.772;7.730;2023-06-14T12:16:39;3.60;;;1.50;;
67092;SDS011;54011;50.772;7.730;2023-06-14T12:21:39;4.15;;;1.70;;
67092;SDS011;54011;50.772;7.730;2023-06-14T12:24:08;3.10;;;1.50;;
67092;SDS011;54011;50.772;7.730;2023-06-14T12:26:34;3.72;;;1.40;;
67092;SDS011;54011;50.772;7.730;2023-06-14T12:29:06;3.55;;;1.70;;
67092;SDS011;54011;50.772;7.730;2023-06-14T12:31:33;4.13;;;1.85;;
67092;SDS011;54011;50.772;7.730;2023-06-14T12:34:03;4.88;;;1.58;;
67092;SDS011;54011;50.772;7.730;2023-06-14T12:36:30;4.22;;;1.50;;
67092;SDS011;54011;50.772;7.730;2023-06-14T12:38:57;3.53;;;1.70;;
67092;SDS011;54011;50.772;7.730;2023-06-14T12:41:23;4.15;;;1.40;;
67092;SDS011;54011;50.772;7.730;2023-06-14T12:43:49;3.92;;;1.77;;
67092;SDS011;54011;50.772;7.730;2023-06-14T12:46:16;4.63;;;1.70;;
67092;SDS011;54011;50.772;7.730;2023-06-14T12:48:42;7.75;;;1.70;;
67092;SDS011;54011;50.772;7.730;2023-06-14T12:51:08;6.22;;;1.88;;
67092;SDS011;54011;50.772;7.730;2023-06-14T12:53:34;3.80;;;1.80;;
67092;SDS011;54011;50.772;7.730;2023-06-14T12:56:00;3.63;;;1.60;;
67092;SDS011;54011;50.772;7.730;2023-06-14T12:58:25;3.08;;;1.45;;
67092;SDS011;54011;50.772;7.730;2023-06-14T13:00:51;4.63;;;1.83;;
67092;SDS011;54011;50.772;7.730;2023-06-14T13:03:16;3.45;;;1.63;;
67092;SDS011;54011;50.772;7.730;2023-06-14T13:05:42;5.15;;;1.60;;
67092;SDS011;54011;50.772;7.730;2023-06-14T13:08:08;4.13;;;1.50;;
67092;SDS011;54011;50.772;7.730;2023-06-14T13:10:34;3.47;;;1.60;;
67092;SDS011;54011;50.772;7.730;2023-06-14T13:13:00;3.13;;;1.63;;
67092;SDS011;54011;50.772;7.730;2023-06-14T13:15:26;4.35;;;1.77;;
67092;SDS011;54011;50.772;7.730;2023-06-14T13:17:52;5.85;;;1.73;;
67092;SDS011;54011;50.772;7.730;2023-06-14T13:20:17;5.60;;;1.80;;
67092;SDS011;54011;50.772;7.730;2023-06-14T13:22:44;4.80;;;1.88;;
67092;SDS011;54011;50.772;7.730;2023-06-14T13:25:11;4.50;;;1.70;;
67092;SDS011;54011;50.772;7.730;2023-06-14T13:27:36;3.53;;;1.60;;
67092;SDS011;54011;50.772;7.730;2023-06-14T13:30:02;5.95;;;1.55;;
67092;SDS011;54011;50.772;7.730;2023-06-14T13:32:30;4.28;;;1.70;;
67092;SDS011;54011;50.772;7.730;2023-06-14T13:34:56;4.68;;;1.45;;
67092;SDS011;54011;50.772;7.730;2023-06-14T13:37:21;5.38;;;1.70;;
67092;SDS011;54011;50.772;7.730;2023-06-14T13:39:47;5.60;;;1.65;;
67092;SDS011;54011;50.772;7.730;2023-06-14T13:42:13;7.10;;;2.10;;
67092;SDS011;54011;50.772;7.730;2023-06-14T13:44:40;4.40;;;1.67;;
67092;SDS011;54011;50.772;7.730;2023-06-14T13:47:05;4.57;;;1.70;;
67092;SDS011;54011;50.772;7.730;2023-06-14T13:49:31;4.47;;;1.80;;
67092;SDS011;54011;50.772;7.730;2023-06-14T13:52:00;3.97;;;1.70;;
67092;SDS011;54011;50.772;7.730;2023-06-14T13:54:26;3.90;;;1.48;;
67092;SDS011;54011;50.772;7.730;2023-06-14T13:56:51;4.15;;;1.60;;
67092;SDS011;54011;50.772;7.730;2023-06-14T13:59:17;4.40;;;1.60;;
67092;SDS011;54011;50.772;7.730;2023-06-14T14:01:44;4.65;;;1.75;;
67092;SDS011;54011;50.772;7.730;2023-06-14T14:04:09;4.15;;;1.50;;
67092;SDS011;54011;50.772;7.730;2023-06-14T14:06:36;5.30;;;1.77;;
67092;SDS011;54011;50.772;7.730;2023-06-14T14:09:02;4.22;;;1.70;;
67092;SDS011;54011;50.772;7.730;2023-06-14T14:11:28;8.55;;;1.65;;
67092;SDS011;54011;50.772;7.730;2023-06-14T14:13:58;4.57;;;1.73;;
67092;SDS011;54011;50.772;7.730;2023-06-14T14:16:24;4.38;;;1.83;;
67092;SDS011;54011;50.772;7.730;2023-06-14T14:18:50;6.22;;;1.67;;
67092;SDS011;54011;50.772;7.730;2023-06-14T14:21:15;3.45;;;1.63;;
67092;SDS011;54011;50.772;7.730;2023-06-14T14:23:41;6.35;;;1.77;;
67092;SDS011;54011;50.772;7.730;2023-06-14T14:26:06;3.25;;;1.58;;
67092;SDS011;54011;50.772;7.730;2023-06-14T14:28:32;3.42;;;1.60;;
67092;SDS011;54011;50.772;7.730;2023-06-14T14:30:58;4.90;;;1.70;;
67092;SDS011;54011;50.772;7.730;2023-06-14T14:33:24;6.35;;;1.50;;
67092;SDS011;54011;50.772;7.730;2023-06-14T14:35:50;6.28;;;1.67;;
67092;SDS011;54011;50.772;7.730;2023-06-14T14:38:16;3.55;;;1.70;;
67092;SDS011;54011;50.772;7.730;2023-06-14T14:40:42;4.82;;;1.88;;
67092;SDS011;54011;50.772;7.730;2023-06-14T14:43:09;3.08;;;1.65;;
67092;SDS011;54011;50.772;7.730;2023-06-14T14:45:34;3.67;;;1.70;;
67092;SDS011;54011;50.772;7.730;2023-06-14T14:48:01;3.60;;;1.60;;
67092;SDS011;54011;50.772;7.730;2023-06-14T14:50:27;3.10;;;1.58;;
67092;SDS011;54011;50.772;7.730;2023-06-14T14:52:55;3.67;;;1.70;;
67092;SDS011;54011;50.772;7.730;2023-06-14T14:55:21;5.35;;;1.83;;
67092;SDS011;54011;50.772;7.730;2023-06-14T14:57:48;7.10;;;1.80;;
67092;SDS011;54011;50.772;7.730;2023-06-14T15:00:14;3.33;;;1.83;;
67092;SDS011;54011;50.772;7.730;2023-06-14T15:02:41;8.63;;;1.92;;
67092;SDS011;54011;50.772;7.730;2023-06-14T15:05:08;7.05;;;1.92;;
67092;SDS011;54011;50.772;7.730;2023-06-14T15:07:34;3.58;;;1.70;;
67092;SDS011;54011;50.772;7.730;2023-06-14T15:10:00;4.18;;;1.70;;
67092;SDS011;54011;50.772;7.730;2023-06-14T15:12:26;4.82;;;1.88;;
67092;SDS011;54011;50.772;7.730;2023-06-14T15:14:53;5.53;;;1.90;;